Time;durP1;ratioP1;P1;durP2;ratioP2;P2;SDS_P1;SDS_P2;PMS_P1;PMS_P2;Temp;Humidity;BMP_temperature;BMP_pressure;BME280_temperature;BME280_humidity;BME280_pressure;Samples;Min_cycle;Max_cycle;Signal;HPM_P1;HPM_P2
2023/11/24 00:00:17;;;;;;;7.00;1.50;;;9.10;87.10;;;;;;5136546;27;20375;-28
2023/11/24 00:02:42;;;;;;;7.35;1.48;;;8.90;87.20;;;;;;5135962;27;20020;-30
2023/11/24 00:05:09;;;;;;;5.53;1.30;;;8.80;86.80;;;;;;5136540;27;20016;-29
2023/11/24 00:07:35;;;;;;;5.25;0.93;;;8.70;87.30;;;;;;5136509;27;20019;-28
2023/11/24 00:10:02;;;;;;;2.85;0.90;;;8.70;88.00;;;;;;5135992;27;20024;-29
2023/11/24 00:12:28;;;;;;;3.83;1.20;;;8.60;87.90;;;;;;5136409;27;20413;-31
2023/11/24 00:14:54;;;;;;;5.93;1.60;;;8.60;87.90;;;;;;5136248;27;20347;-29
2023/11/24 00:17:20;;;;;;;4.13;1.02;;;8.50;88.10;;;;;;5136040;27;20086;-30
2023/11/24 00:19:47;;;;;;;3.60;0.80;;;8.50;88.30;;;;;;5135652;27;20030;-32
2023/11/24 00:22:12;;;;;;;3.83;0.98;;;8.40;88.60;;;;;;5136036;27;20054;-29
2023/11/24 00:24:38;;;;;;;3.97;1.05;;;8.40;88.50;;;;;;5135690;27;20050;-27
2023/11/24 00:27:05;;;;;;;4.68;1.05;;;8.40;89.00;;;;;;5135740;27;20528;-26
2023/11/24 00:29:31;;;;;;;5.10;1.30;;;8.40;89.30;;;;;;5135784;27;20454;-27
2023/11/24 00:31:58;;;;;;;5.68;1.13;;;8.50;88.90;;;;;;5135634;27;20040;-28
2023/11/24 00:34:23;;;;;;;3.03;0.80;;;8.50;88.90;;;;;;5134317;27;20102;-27
2023/11/24 00:36:49;;;;;;;7.30;1.38;;;8.50;88.90;;;;;;5135739;27;20124;-26
2023/11/24 00:39:15;;;;;;;5.30;1.23;;;8.50;88.90;;;;;;5135576;27;20019;-26
2023/11/24 00:41:40;;;;;;;7.38;1.05;;;8.50;88.90;;;;;;5135660;27;20220;-28
2023/11/24 00:44:06;;;;;;;4.32;1.00;;;8.50;88.70;;;;;;5135255;27;20034;-27
2023/11/24 00:46:32;;;;;;;6.32;1.65;;;8.50;88.80;;;;;;5135292;27;20024;-27
2023/11/24 00:48:57;;;;;;;7.63;1.40;;;8.60;88.80;;;;;;5135061;27;20027;-30
2023/11/24 00:51:24;;;;;;;5.20;1.00;;;8.60;88.90;;;;;;5135027;27;20026;-26
2023/11/24 00:53:52;;;;;;;6.30;1.38;;;8.60;88.90;;;;;;5135018;27;20106;-27
2023/11/24 00:56:17;;;;;;;7.70;1.30;;;8.70;89.00;;;;;;5135536;27;20576;-31
2023/11/24 00:58:43;;;;;;;6.10;1.63;;;8.70;89.00;;;;;;5135198;27;20098;-29
2023/11/24 01:01:09;;;;;;;7.53;1.70;;;8.70;88.90;;;;;;5135054;27;20034;-31
2023/11/24 01:03:35;;;;;;;6.70;1.63;;;8.70;88.60;;;;;;5134112;27;20027;-27
2023/11/24 01:06:01;;;;;;;8.85;1.50;;;8.60;89.10;;;;;;5135062;27;20059;-29
2023/11/24 01:08:26;;;;;;;5.68;1.70;;;8.60;88.60;;;;;;5134721;27;20023;-30
2023/11/24 01:10:56;;;;;;;6.95;1.60;;;8.60;88.70;;;;;;5134973;27;20073;-28
2023/11/24 01:13:22;;;;;;;9.55;1.88;;;8.60;88.70;;;;;;5134827;27;20533;-28
2023/11/24 01:15:47;;;;;;;5.63;1.35;;;8.50;88.70;;;;;;5135244;27;20099;-30
2023/11/24 01:18:13;;;;;;;5.95;2.22;;;8.60;88.90;;;;;;5134520;27;20046;-27
2023/11/24 01:20:38;;;;;;;6.25;1.42;;;8.50;89.10;;;;;;5134768;27;20084;-28
2023/11/24 01:23:04;;;;;;;6.20;1.15;;;8.50;89.10;;;;;;5134245;27;20529;-26
2023/11/24 01:25:31;;;;;;;5.35;1.15;;;8.50;89.30;;;;;;5134599;27;20095;-30
2023/11/24 01:27:56;;;;;;;8.73;1.33;;;8.50;89.40;;;;;;5134647;27;20486;-28
2023/11/24 01:30:22;;;;;;;11.40;1.48;;;8.40;89.40;;;;;;5134477;27;20096;-27
2023/11/24 01:32:47;;;;;;;5.75;1.15;;;8.40;89.50;;;;;;5134323;27;20030;-26
2023/11/24 01:35:13;;;;;;;5.95;1.40;;;8.40;89.60;;;;;;5134556;27;20027;-28
2023/11/24 01:37:38;;;;;;;3.97;1.20;;;8.40;89.70;;;;;;5133042;27;20022;-31
2023/11/24 01:40:06;;;;;;;9.10;1.70;;;8.40;89.80;;;;;;5134612;27;20026;-28
2023/11/24 01:42:37;;;;;;;6.88;1.55;;;8.40;89.80;;;;;;5134261;27;20030;-28
2023/11/24 01:45:07;;;;;;;8.75;1.70;;;8.40;89.90;;;;;;5134442;27;20547;-30
2023/11/24 01:47:33;;;;;;;10.52;2.35;;;8.40;90.00;;;;;;5134171;27;20023;-30
2023/11/24 01:49:59;;;;;;;7.43;2.08;;;8.40;89.90;;;;;;5133991;27;20075;-30
2023/11/24 01:52:24;;;;;;;6.45;1.40;;;8.40;89.90;;;;;;5134072;27;20023;-29
2023/11/24 01:54:50;;;;;;;7.20;1.73;;;8.40;89.90;;;;;;5133929;27;20030;-30
2023/11/24 01:57:16;;;;;;;7.30;1.77;;;8.40;90.00;;;;;;5134469;27;20375;-28
2023/11/24 01:59:41;;;;;;;6.43;1.63;;;8.40;89.90;;;;;;5133773;27;20019;-28
2023/11/24 02:02:07;;;;;;;6.82;2.15;;;8.40;89.80;;;;;;5133565;27;20027;-30
2023/11/24 02:04:33;;;;;;;13.02;2.50;;;8.30;89.70;;;;;;5133836;27;20029;-31
2023/11/24 02:07:00;;;;;;;9.95;1.77;;;8.30;89.70;;;;;;5133995;27;20080;-30
2023/11/24 02:09:27;;;;;;;11.23;1.88;;;8.30;89.40;;;;;;5133509;27;20059;-28
2023/11/24 02:11:53;;;;;;;15.48;2.13;;;8.30;89.50;;;;;;5133745;27;20097;-32
2023/11/24 02:14:19;;;;;;;10.45;2.25;;;8.30;89.40;;;;;;5133017;27;20031;-29
2023/11/24 02:16:44;;;;;;;10.93;2.10;;;8.30;89.20;;;;;;5133382;27;20045;-30
2023/11/24 02:19:11;;;;;;;9.07;1.63;;;8.40;89.30;;;;;;5133558;27;20023;-31
2023/11/24 02:21:37;;;;;;;11.98;2.10;;;8.40;89.00;;;;;;5133559;27;20027;-32
2023/11/24 02:24:05;;;;;;;6.65;2.00;;;8.40;88.90;;;;;;5133274;27;20484;-31
2023/11/24 02:26:31;;;;;;;8.15;2.05;;;8.30;88.50;;;;;;5133425;27;20031;-31
2023/11/24 02:28:57;;;;;;;11.07;1.98;;;8.30;88.40;;;;;;5133395;27;20353;-30
2023/11/24 02:31:22;;;;;;;8.43;2.03;;;8.30;88.30;;;;;;5133236;27;20039;-33
2023/11/24 02:33:49;;;;;;;8.73;1.90;;;8.30;88.40;;;;;;5133017;27;20029;-33
2023/11/24 02:36:20;;;;;;;8.98;2.28;;;8.30;88.30;;;;;;5133684;27;20030;-32
2023/11/24 02:38:49;;;;;;;8.73;1.92;;;8.30;88.30;;;;;;5133335;27;20015;-34
2023/11/24 02:41:18;;;;;;;10.80;1.80;;;8.30;88.10;;;;;;5133450;27;20023;-30
2023/11/24 02:43:44;;;;;;;8.93;1.60;;;8.30;88.20;;;;;;5133122;27;20023;-29
2023/11/24 02:46:14;;;;;;;9.15;1.48;;;8.30;88.20;;;;;;5133173;27;20019;-31
2023/11/24 02:48:44;;;;;;;6.55;1.60;;;8.30;88.30;;;;;;5132747;27;20106;-27
2023/11/24 02:51:10;;;;;;;11.05;2.45;;;8.30;88.20;;;;;;5132848;27;20069;-30
2023/11/24 02:53:39;;;;;;;10.88;2.30;;;8.30;88.30;;;;;;5132516;27;20026;-30
2023/11/24 02:56:05;;;;;;;7.40;1.75;;;8.30;88.20;;;;;;5132817;27;20019;-27
2023/11/24 02:58:32;;;;;;;6.68;1.45;;;8.30;88.10;;;;;;5132612;27;20117;-31
2023/11/24 03:00:58;;;;;;;4.93;1.40;;;8.30;88.10;;;;;;5132706;27;20032;-42
2023/11/24 03:03:23;;;;;;;6.95;1.50;;;8.30;88.10;;;;;;5132503;27;20037;-40
2023/11/24 03:05:52;;;;;;;7.30;1.58;;;8.30;88.10;;;;;;5132536;27;20027;-43
2023/11/24 03:08:19;;;;;;;7.65;1.90;;;8.30;88.00;;;;;;5131350;27;20690;-42
2023/11/24 03:10:45;;;;;;;7.10;1.90;;;8.30;87.80;;;;;;5132689;27;20470;-43
2023/11/24 03:13:11;;;;;;;5.35;1.60;;;8.30;87.80;;;;;;5132940;27;20076;-42
2023/11/24 03:15:37;;;;;;;7.70;1.70;;;8.30;87.20;;;;;;5132426;27;20382;-43
2023/11/24 03:18:02;;;;;;;9.27;1.48;;;8.30;87.10;;;;;;5132501;27;20015;-43
2023/11/24 03:20:28;;;;;;;8.85;1.95;;;8.30;87.20;;;;;;5132327;27;20097;-43
2023/11/24 03:22:54;;;;;;;5.03;1.17;;;8.30;86.90;;;;;;5132481;27;20094;-37
2023/11/24 03:25:20;;;;;;;6.40;1.60;;;8.40;86.90;;;;;;5132416;27;20031;-37
2023/11/24 03:27:46;;;;;;;7.28;2.00;;;8.40;87.00;;;;;;5132686;27;20076;-42
2023/11/24 03:30:12;;;;;;;5.80;1.48;;;8.40;86.80;;;;;;5132175;27;20088;-40
2023/11/24 03:32:38;;;;;;;9.30;1.98;;;8.50;85.90;;;;;;5132464;27;20027;-41
2023/11/24 03:35:05;;;;;;;3.63;1.23;;;8.50;84.50;;;;;;5132290;27;20023;-43
2023/11/24 03:37:31;;;;;;;5.20;1.42;;;8.40;84.40;;;;;;5131141;28;20658;-39
2023/11/24 03:39:56;;;;;;;7.13;1.23;;;8.40;85.00;;;;;;5132515;27;20098;-43
2023/11/24 03:42:22;;;;;;;6.75;1.30;;;8.40;84.90;;;;;;5132436;27;20015;-42
2023/11/24 03:44:47;;;;;;;8.77;1.27;;;8.40;85.10;;;;;;5132330;27;20039;-40
2023/11/24 03:47:13;;;;;;;6.63;1.35;;;8.40;84.90;;;;;;5131898;27;20072;-41
2023/11/24 03:49:38;;;;;;;4.10;1.13;;;8.40;85.20;;;;;;5132106;27;20022;-37
2023/11/24 03:52:04;;;;;;;4.60;1.13;;;8.40;85.20;;;;;;5132426;27;20023;-42
2023/11/24 03:54:30;;;;;;;9.38;1.33;;;8.40;85.30;;;;;;5132203;27;20030;-40
2023/11/24 03:56:55;;;;;;;4.57;0.90;;;8.40;85.50;;;;;;5132122;27;20023;-42
2023/11/24 03:59:21;;;;;;;3.97;0.98;;;8.40;85.60;;;;;;5132435;27;20030;-41
2023/11/24 04:01:46;;;;;;;3.67;1.02;;;8.40;85.70;;;;;;5132476;27;20016;-43
2023/11/24 04:04:12;;;;;;;4.78;1.30;;;8.40;86.00;;;;;;5131984;27;20023;-41
2023/11/24 04:06:38;;;;;;;5.97;1.23;;;8.30;86.20;;;;;;5132279;27;20106;-41
2023/11/24 04:09:04;;;;;;;2.78;0.70;;;8.20;86.40;;;;;;5131951;27;20022;-43
2023/11/24 04:11:30;;;;;;;3.42;1.10;;;8.20;86.80;;;;;;5132487;27;20019;-43
2023/11/24 04:13:56;;;;;;;3.63;1.25;;;8.10;87.10;;;;;;5131902;27;20540;-46
2023/11/24 04:16:22;;;;;;;6.22;1.40;;;8.10;87.30;;;;;;5132025;27;20027;-42
2023/11/24 04:18:48;;;;;;;4.78;1.25;;;8.10;87.40;;;;;;5132011;27;20094;-40
2023/11/24 04:21:14;;;;;;;5.40;1.23;;;8.10;87.50;;;;;;5130579;28;20058;-42
2023/11/24 04:23:39;;;;;;;4.05;1.05;;;8.10;87.60;;;;;;5132072;27;20063;-40
2023/11/24 04:26:06;;;;;;;4.45;1.35;;;8.10;87.70;;;;;;5131870;27;20367;-39
2023/11/24 04:28:32;;;;;;;5.72;1.50;;;8.10;87.80;;;;;;5132205;27;20031;-42
2023/11/24 04:30:58;;;;;;;6.80;1.50;;;8.10;87.80;;;;;;5131650;27;20443;-40
2023/11/24 04:33:24;;;;;;;7.82;1.38;;;8.20;87.90;;;;;;5132024;27;20030;-40
2023/11/24 04:35:50;;;;;;;7.25;1.10;;;8.20;87.80;;;;;;5130459;28;20379;-41
2023/11/24 04:38:16;;;;;;;5.50;1.60;;;8.10;87.50;;;;;;5133200;27;20092;-43
2023/11/24 04:40:42;;;;;;;6.70;1.48;;;8.10;87.60;;;;;;5135464;27;20050;-42
2023/11/24 04:43:08;;;;;;;5.22;1.00;;;8.10;87.80;;;;;;5135518;27;20394;-42
2023/11/24 04:45:35;;;;;;;9.63;1.52;;;8.10;87.80;;;;;;5135708;27;20019;-40
2023/11/24 04:48:01;;;;;;;6.25;1.30;;;8.10;87.80;;;;;;5135712;27;20023;-42
2023/11/24 04:50:27;;;;;;;8.07;1.63;;;8.10;87.70;;;;;;5133799;27;20023;-43
2023/11/24 04:52:52;;;;;;;9.15;1.75;;;8.10;87.60;;;;;;5135174;27;20409;-40
2023/11/24 04:55:18;;;;;;;6.82;1.73;;;8.10;87.40;;;;;;5135219;27;20011;-43
2023/11/24 04:57:49;;;;;;;4.40;1.10;;;8.10;87.20;;;;;;5135290;27;20023;-42
2023/11/24 05:00:18;;;;;;;4.65;1.60;;;8.10;87.00;;;;;;5135033;27;20486;-43
2023/11/24 05:02:43;;;;;;;4.95;1.13;;;8.10;86.80;;;;;;5134883;27;20098;-43
2023/11/24 05:05:09;;;;;;;5.60;1.42;;;8.20;86.80;;;;;;5135121;27;20046;-40
2023/11/24 05:07:35;;;;;;;6.25;1.38;;;8.10;86.60;;;;;;5135269;27;20053;-42
2023/11/24 05:10:00;;;;;;;5.57;1.30;;;8.10;86.20;;;;;;5134965;27;20023;-41
2023/11/24 05:12:26;;;;;;;6.97;1.13;;;8.10;86.20;;;;;;5134763;27;20023;-42
2023/11/24 05:14:51;;;;;;;6.03;1.50;;;8.00;86.10;;;;;;5134910;27;20478;-41
2023/11/24 05:17:17;;;;;;;5.68;1.27;;;8.00;85.70;;;;;;5134597;27;20025;-40
2023/11/24 05:19:43;;;;;;;8.57;1.30;;;8.00;85.60;;;;;;5132865;27;20023;-43
2023/11/24 05:22:08;;;;;;;4.90;1.40;;;8.00;85.70;;;;;;5134715;27;20072;-40
2023/11/24 05:24:34;;;;;;;5.25;1.13;;;8.00;84.60;;;;;;5134525;27;20027;-42
2023/11/24 05:27:00;;;;;;;4.40;1.20;;;8.00;84.40;;;;;;5135001;27;20058;-41
2023/11/24 05:29:25;;;;;;;4.57;1.42;;;8.00;84.50;;;;;;5134551;27;20072;-41
2023/11/24 05:31:51;;;;;;;7.63;1.63;;;8.00;84.90;;;;;;5134532;27;20043;-43
2023/11/24 05:34:16;;;;;;;5.97;1.30;;;8.00;84.30;;;;;;5134208;27;20466;-39
2023/11/24 05:36:45;;;;;;;3.63;1.17;;;8.00;83.30;;;;;;5134584;27;20031;-41
2023/11/24 05:39:11;;;;;;;9.10;1.30;;;8.00;83.70;;;;;;5134409;27;20015;-42
2023/11/24 05:41:37;;;;;;;6.20;1.33;;;8.00;83.00;;;;;;5134636;27;20080;-43
2023/11/24 05:44:04;;;;;;;5.78;1.08;;;8.00;83.30;;;;;;5134094;27;20027;-42
2023/11/24 05:46:30;;;;;;;3.53;0.90;;;7.90;83.40;;;;;;5134521;27;20023;-42
2023/11/24 05:48:56;;;;;;;6.10;1.45;;;7.90;84.00;;;;;;5134096;27;20103;-44
2023/11/24 05:51:22;;;;;;;8.02;1.83;;;7.80;84.50;;;;;;5134599;27;20102;-41
2023/11/24 05:53:47;;;;;;;5.10;1.10;;;7.70;84.90;;;;;;5134444;27;20094;-43
2023/11/24 05:56:13;;;;;;;7.85;1.20;;;7.60;85.40;;;;;;5133983;27;20113;-42
2023/11/24 05:58:38;;;;;;;5.18;1.10;;;7.50;86.00;;;;;;5134520;27;20020;-41
2023/11/24 06:01:04;;;;;;;5.32;1.30;;;7.40;86.40;;;;;;5133816;27;20382;-41
2023/11/24 06:03:30;;;;;;;5.80;1.30;;;7.40;86.90;;;;;;5133862;27;20031;-41
2023/11/24 06:05:56;;;;;;;5.45;1.30;;;7.30;87.20;;;;;;5133681;27;20027;-42
2023/11/24 06:08:22;;;;;;;6.30;1.30;;;7.30;87.50;;;;;;5133998;27;20102;-41
2023/11/24 06:10:47;;;;;;;6.00;1.00;;;7.30;87.80;;;;;;5133700;27;20387;-40
2023/11/24 06:13:13;;;;;;;4.00;0.88;;;7.30;88.00;;;;;;5133738;27;20471;-36
2023/11/24 06:15:39;;;;;;;3.33;0.88;;;7.20;88.20;;;;;;5133597;27;20076;-43
2023/11/24 06:18:04;;;;;;;5.15;1.15;;;7.20;88.40;;;;;;5133793;27;20405;-43
2023/11/24 06:20:30;;;;;;;6.30;1.50;;;7.30;88.60;;;;;;5133761;27;20364;-40
2023/11/24 06:22:56;;;;;;;4.30;1.17;;;7.20;88.70;;;;;;5133554;27;20023;-43
2023/11/24 06:25:21;;;;;;;5.90;1.42;;;7.20;88.70;;;;;;5133543;27;20023;-36
2023/11/24 06:27:47;;;;;;;6.43;1.10;;;7.20;88.80;;;;;;5133830;27;20531;-42
2023/11/24 06:30:13;;;;;;;7.63;1.13;;;7.20;88.80;;;;;;5132992;27;20043;-39
2023/11/24 06:32:39;;;;;;;2.72;0.80;;;7.10;88.60;;;;;;5133995;27;20334;-42
2023/11/24 06:35:06;;;;;;;4.78;1.02;;;7.10;88.60;;;;;;5133224;27;20564;-39
2023/11/24 06:37:32;;;;;;;4.75;1.13;;;7.10;88.60;;;;;;5133501;27;20023;-40
2023/11/24 06:39:58;;;;;;;4.70;1.00;;;7.20;88.80;;;;;;5133388;27;20015;-42
2023/11/24 06:42:23;;;;;;;6.30;1.02;;;7.10;88.70;;;;;;5133373;27;20028;-40
2023/11/24 06:44:49;;;;;;;7.53;1.33;;;7.10;88.80;;;;;;5133174;27;20031;-35
2023/11/24 06:47:14;;;;;;;6.63;1.40;;;7.10;89.00;;;;;;5131687;27;20030;-42
2023/11/24 06:49:40;;;;;;;8.27;1.20;;;7.10;89.20;;;;;;5133044;27;20054;-40
2023/11/24 06:52:06;;;;;;;5.13;1.25;;;7.10;89.20;;;;;;5133019;27;20020;-43
2023/11/24 06:54:32;;;;;;;4.15;1.30;;;7.10;89.30;;;;;;5133422;27;20089;-40
2023/11/24 06:56:59;;;;;;;4.32;0.95;;;7.10;89.40;;;;;;5133213;27;20023;-41
2023/11/24 06:59:25;;;;;;;5.82;1.17;;;7.10;89.50;;;;;;5133365;27;20023;-39
2023/11/24 07:01:51;;;;;;;4.60;1.30;;;7.10;89.50;;;;;;5132383;27;20027;-40
2023/11/24 07:04:18;;;;;;;7.00;1.50;;;7.10;89.60;;;;;;5131744;27;20030;-40
2023/11/24 07:06:44;;;;;;;5.65;1.20;;;7.00;89.70;;;;;;5132782;27;20141;-42
2023/11/24 07:09:10;;;;;;;6.43;1.52;;;7.00;89.80;;;;;;5133076;27;20031;-40
2023/11/24 07:11:36;;;;;;;3.22;1.00;;;6.90;89.80;;;;;;5132628;27;20023;-38
2023/11/24 07:14:01;;;;;;;5.03;1.10;;;6.90;89.90;;;;;;5132856;27;20106;-40
2023/11/24 07:16:27;;;;;;;6.18;1.27;;;7.00;90.00;;;;;;5132832;27;20467;-43
2023/11/24 07:18:53;;;;;;;4.43;0.90;;;7.00;89.90;;;;;;5132801;27;20034;-40
2023/11/24 07:21:18;;;;;;;7.40;1.27;;;7.00;90.00;;;;;;5132912;27;20022;-41
2023/11/24 07:23:44;;;;;;;12.48;1.75;;;7.00;90.00;;;;;;5132755;27;20030;-39
2023/11/24 07:26:18;;;;;;;7.80;1.33;;;7.00;90.00;;;;;;5132766;27;20129;-42
2023/11/24 07:28:44;;;;;;;6.40;1.10;;;7.00;90.10;;;;;;5132554;27;20039;-39
2023/11/24 07:31:17;;;;;;;4.80;1.30;;;6.90;90.10;;;;;;5132332;27;20487;-40
2023/11/24 07:33:48;;;;;;;4.00;1.17;;;6.90;90.30;;;;;;5132779;27;20043;-36
2023/11/24 07:36:20;;;;;;;5.55;1.70;;;6.90;90.30;;;;;;5132619;27;20020;-36
2023/11/24 07:38:47;;;;;;;5.28;1.50;;;6.90;90.30;;;;;;5132761;27;20023;-36
2023/11/24 07:41:14;;;;;;;5.97;1.30;;;6.80;90.40;;;;;;5132229;27;20064;-40
2023/11/24 07:43:39;;;;;;;4.90;1.30;;;6.80;90.50;;;;;;5132411;27;20106;-36
2023/11/24 07:46:07;;;;;;;7.07;1.38;;;6.80;90.50;;;;;;5132293;27;20055;-38
2023/11/24 07:48:35;;;;;;;7.88;1.23;;;6.80;90.60;;;;;;5132203;27;20026;-37
2023/11/24 07:51:02;;;;;;;6.93;1.40;;;6.80;90.60;;;;;;5132403;27;20016;-35
2023/11/24 07:53:27;;;;;;;4.50;1.08;;;6.80;90.70;;;;;;5132163;27;20068;-38
2023/11/24 07:55:53;;;;;;;5.55;1.10;;;6.80;91.00;;;;;;5132394;27;20027;-40
2023/11/24 07:58:19;;;;;;;6.03;1.10;;;6.80;90.70;;;;;;5132097;27;20019;-42
2023/11/24 08:00:45;;;;;;;8.10;1.35;;;6.80;90.80;;;;;;5132219;27;20106;-40
2023/11/24 08:03:11;;;;;;;2.75;1.17;;;6.70;90.80;;;;;;5132206;27;20023;-35
2023/11/24 08:05:36;;;;;;;4.85;1.30;;;6.70;90.80;;;;;;5132022;27;20471;-40
2023/11/24 08:08:02;;;;;;;4.78;1.10;;;6.70;90.80;;;;;;5132156;27;20497;-35
2023/11/24 08:10:28;;;;;;;5.63;1.70;;;6.70;90.70;;;;;;5131762;27;20495;-38
2023/11/24 08:12:53;;;;;;;5.13;0.82;;;6.70;90.70;;;;;;5132327;27;20044;-38
2023/11/24 08:15:19;;;;;;;3.70;0.80;;;6.80;90.60;;;;;;5136051;27;20027;-37
2023/11/24 08:17:44;;;;;;;3.90;1.15;;;6.80;90.60;;;;;;5135812;27;20016;-36
2023/11/24 08:20:10;;;;;;;4.47;1.00;;;6.80;90.50;;;;;;5135851;27;20589;-35
2023/11/24 08:22:37;;;;;;;4.40;1.10;;;6.90;90.30;;;;;;5136208;27;20023;-35
2023/11/24 08:25:03;;;;;;;3.65;0.98;;;6.90;90.20;;;;;;5135676;27;20382;-35
2023/11/24 08:27:29;;;;;;;4.18;1.10;;;6.90;90.10;;;;;;5135923;27;20385;-36
2023/11/24 08:29:55;;;;;;;4.60;0.85;;;6.90;90.00;;;;;;5135461;27;20027;-36
2023/11/24 08:32:20;;;;;;;4.53;1.10;;;6.90;89.70;;;;;;5135983;27;20031;-36
2023/11/24 08:34:47;;;;;;;6.10;1.10;;;6.90;89.80;;;;;;5135249;27;20467;-34
2023/11/24 08:37:13;;;;;;;5.68;1.00;;;6.80;89.80;;;;;;5135788;27;20408;-37
2023/11/24 08:39:39;;;;;;;4.07;0.80;;;6.80;89.90;;;;;;5135848;27;20011;-40
2023/11/24 08:42:05;;;;;;;3.45;1.10;;;6.80;90.00;;;;;;5135432;27;20110;-36
2023/11/24 08:44:31;;;;;;;4.82;0.73;;;6.80;90.00;;;;;;5135897;27;20432;-35
2023/11/24 08:46:57;;;;;;;4.05;1.00;;;6.80;90.10;;;;;;5135481;27;20023;-42
2023/11/24 08:49:22;;;;;;;2.22;0.68;;;6.80;90.10;;;;;;5135308;27;20050;-35
2023/11/24 08:51:48;;;;;;;3.58;0.80;;;6.70;90.10;;;;;;5135592;27;20378;-40
2023/11/24 08:54:14;;;;;;;3.25;0.60;;;6.70;90.20;;;;;;5135706;27;20011;-40
2023/11/24 08:56:39;;;;;;;3.20;0.90;;;6.70;90.20;;;;;;5135581;27;20383;-37
2023/11/24 08:59:08;;;;;;;2.65;0.80;;;6.70;90.20;;;;;;5135006;27;20023;-36
2023/11/24 09:01:34;;;;;;;2.97;0.60;;;6.80;90.20;;;;;;5134898;27;20034;-37
2023/11/24 09:04:00;;;;;;;2.28;0.60;;;6.80;90.20;;;;;;5135451;27;20051;-36
2023/11/24 09:06:31;;;;;;;1.58;0.45;;;6.80;90.10;;;;;;5134864;27;20050;-39
2023/11/24 09:08:58;;;;;;;3.38;0.80;;;6.70;89.60;;;;;;5135053;27;20512;-41
2023/11/24 09:11:24;;;;;;;2.15;0.90;;;6.70;90.00;;;;;;5133309;27;20475;-39
2023/11/24 09:13:51;;;;;;;1.67;0.55;;;6.70;89.70;;;;;;5134920;27;20107;-39
2023/11/24 09:16:18;;;;;;;1.83;0.82;;;6.70;90.00;;;;;;5135027;27;20092;-36
2023/11/24 09:18:44;;;;;;;2.20;0.40;;;6.80;90.00;;;;;;5134793;27;20050;-34
2023/11/24 09:21:10;;;;;;;2.92;0.50;;;6.80;90.10;;;;;;5134955;27;20467;-39
2023/11/24 09:23:36;;;;;;;4.13;0.95;;;6.80;90.10;;;;;;5133014;27;20042;-38
2023/11/24 09:26:02;;;;;;;3.33;0.77;;;6.90;90.10;;;;;;5134589;27;20230;-37
2023/11/24 09:28:29;;;;;;;2.45;0.40;;;6.90;90.10;;;;;;5134707;27;20110;-35
2023/11/24 09:30:55;;;;;;;2.05;0.75;;;6.90;90.00;;;;;;5134207;27;20053;-38
2023/11/24 09:33:21;;;;;;;2.40;0.60;;;6.90;90.10;;;;;;5134930;27;20019;-36
2023/11/24 09:35:47;;;;;;;2.42;0.70;;;6.90;90.10;;;;;;5134745;27;20431;-39
2023/11/24 09:38:13;;;;;;;2.20;0.60;;;7.00;90.30;;;;;;5134575;27;20015;-35
2023/11/24 09:40:39;;;;;;;3.40;0.50;;;7.00;90.30;;;;;;5134439;27;20047;-40
2023/11/24 09:43:06;;;;;;;3.92;0.70;;;7.10;90.30;;;;;;5134325;27;20054;-36
2023/11/24 09:45:32;;;;;;;3.03;0.55;;;7.20;90.30;;;;;;5134504;27;20705;-36
2023/11/24 09:47:59;;;;;;;3.50;0.73;;;7.30;90.30;;;;;;5134580;27;20047;-37
2023/11/24 09:50:26;;;;;;;3.30;0.68;;;7.40;90.10;;;;;;5134117;27;20535;-33
2023/11/24 09:52:56;;;;;;;7.22;1.13;;;7.50;90.00;;;;;;5134483;27;20030;-39
2023/11/24 09:55:23;;;;;;;1.75;0.70;;;7.50;89.60;;;;;;5134220;27;20422;-35
2023/11/24 09:57:52;;;;;;;3.85;0.75;;;7.50;89.30;;;;;;5134236;27;20025;-37
2023/11/24 10:00:19;;;;;;;3.55;0.82;;;7.40;89.20;;;;;;5134067;27;20019;-36
2023/11/24 10:02:49;;;;;;;5.13;1.48;;;7.40;89.30;;;;;;5134102;27;20072;-39
2023/11/24 10:05:18;;;;;;;3.22;0.93;;;7.30;89.10;;;;;;5133938;27;20062;-38
2023/11/24 10:07:50;;;;;;;4.85;0.95;;;7.40;89.50;;;;;;5134047;27;20494;-43
2023/11/24 10:10:23;;;;;;;4.72;1.35;;;7.40;89.40;;;;;;5133720;27;20020;-35
2023/11/24 10:12:53;;;;;;;4.30;1.10;;;7.50;89.50;;;;;;5133587;27;20019;-37
2023/11/24 10:15:22;;;;;;;4.03;0.80;;;7.50;89.00;;;;;;5133800;27;20023;-37
2023/11/24 10:17:48;;;;;;;6.57;0.95;;;7.40;88.80;;;;;;5133496;27;20054;-41
2023/11/24 10:20:18;;;;;;;4.13;0.75;;;7.40;89.10;;;;;;5134087;27;20024;-37
2023/11/24 10:22:49;;;;;;;2.85;0.77;;;7.30;89.00;;;;;;5134104;27;20023;-38
2023/11/24 10:25:22;;;;;;;4.80;1.15;;;7.20;89.00;;;;;;5133843;27;20088;-39
2023/11/24 10:27:48;;;;;;;5.90;1.35;;;7.20;88.70;;;;;;5133516;27;20031;-40
2023/11/24 10:30:14;;;;;;;4.72;1.00;;;7.10;89.00;;;;;;5133341;27;20542;-39
2023/11/24 10:32:43;;;;;;;3.33;1.10;;;7.10;88.60;;;;;;5133187;27;20011;-38
2023/11/24 10:35:12;;;;;;;5.45;1.00;;;7.00;89.00;;;;;;5133336;27;20019;-39
2023/11/24 10:37:39;;;;;;;4.32;1.10;;;7.00;89.40;;;;;;5132528;27;20023;-37
2023/11/24 10:40:10;;;;;;;3.08;0.80;;;7.00;89.80;;;;;;5133163;27;20023;-40
2023/11/24 10:42:38;;;;;;;5.28;1.02;;;7.10;88.80;;;;;;5133106;27;20031;-37
2023/11/24 10:45:10;;;;;;;7.72;1.10;;;7.20;88.60;;;;;;5133559;27;20011;-38
2023/11/24 10:47:43;;;;;;;2.58;0.70;;;7.30;88.40;;;;;;5133004;27;20024;-39
2023/11/24 10:50:20;;;;;;;6.68;1.02;;;7.40;88.10;;;;;;5133444;27;20050;-42
2023/11/24 10:52:55;;;;;;;5.93;1.15;;;7.40;87.10;;;;;;5132722;27;20023;-37
2023/11/24 10:55:21;;;;;;;4.00;1.30;;;7.40;86.90;;;;;;5132710;27;20042;-41
2023/11/24 10:57:47;;;;;;;5.32;1.02;;;7.50;87.00;;;;;;5132707;27;20028;-38
2023/11/24 11:00:20;;;;;;;5.72;1.00;;;7.70;87.00;;;;;;5133204;27;20015;-40
2023/11/24 11:02:46;;;;;;;4.32;1.02;;;7.80;86.70;;;;;;5132907;27;20084;-40
2023/11/24 11:05:17;;;;;;;3.53;1.00;;;7.90;86.80;;;;;;5133114;27;20027;-38
2023/11/24 11:07:54;;;;;;;4.25;0.90;;;7.90;86.30;;;;;;5132831;27;20038;-38
2023/11/24 11:10:28;;;;;;;4.22;0.90;;;7.90;86.20;;;;;;5132822;27;20019;-39
2023/11/24 11:12:56;;;;;;;4.85;1.25;;;7.90;85.30;;;;;;5132748;27;20487;-35
2023/11/24 11:15:25;;;;;;;7.22;1.50;;;7.80;85.90;;;;;;5132823;27;20453;-36
2023/11/24 11:18:07;;;;;;;5.60;1.70;;;7.70;85.10;;;;;;5132346;27;20023;-40
2023/11/24 11:20:37;;;;;;;4.95;1.38;;;7.60;85.00;;;;;;5132965;27;20019;-35
2023/11/24 11:23:03;;;;;;;8.02;1.52;;;7.60;85.60;;;;;;5132530;27;20416;-41
2023/11/24 11:25:35;;;;;;;8.27;1.70;;;7.60;85.50;;;;;;5133088;27;20482;-41
2023/11/24 11:28:20;;;;;;;7.10;1.65;;;7.70;86.00;;;;;;5133056;27;20296;-39
2023/11/24 11:30:50;;;;;;;5.95;1.40;;;7.70;86.00;;;;;;5132078;27;20112;-38
2023/11/24 11:33:19;;;;;;;5.88;1.45;;;7.80;86.00;;;;;;5132251;27;20055;-39
2023/11/24 11:35:46;;;;;;;3.90;1.27;;;7.80;85.90;;;;;;5132350;27;20024;-39
2023/11/24 11:38:14;;;;;;;5.63;1.50;;;8.00;85.50;;;;;;5132340;27;20027;-39
2023/11/24 11:40:44;;;;;;;6.45;1.52;;;8.10;85.50;;;;;;5131123;28;20084;-41
2023/11/24 11:43:13;;;;;;;6.60;1.65;;;8.20;85.10;;;;;;5132698;27;20387;-40
2023/11/24 11:45:49;;;;;;;7.80;2.00;;;8.20;84.90;;;;;;5132404;27;20055;-43
2023/11/24 11:48:15;;;;;;;7.13;1.40;;;8.10;84.90;;;;;;5134967;27;20125;-36
2023/11/24 11:50:56;;;;;;;12.90;2.05;;;8.00;85.30;;;;;;5135048;27;20101;-38
2023/11/24 11:53:29;;;;;;;8.35;1.90;;;8.00;85.90;;;;;;5136831;27;20227;-38
2023/11/24 11:55:59;;;;;;;7.30;1.88;;;8.00;85.50;;;;;;5136488;27;20016;-40
2023/11/24 11:58:27;;;;;;;14.15;2.33;;;8.00;85.50;;;;;;5135028;27;20127;-37
2023/11/24 12:00:53;;;;;;;6.43;1.88;;;8.10;84.60;;;;;;5136594;27;20050;-35
2023/11/24 12:03:20;;;;;;;11.57;2.33;;;8.20;84.20;;;;;;5136201;27;20479;-39
2023/11/24 12:05:47;;;;;;;11.23;2.20;;;8.10;83.60;;;;;;5136054;27;20023;-37
2023/11/24 12:08:16;;;;;;;13.82;2.35;;;8.00;83.20;;;;;;5136490;27;20102;-36
2023/11/24 12:10:43;;;;;;;18.02;2.80;;;8.00;83.70;;;;;;5136431;27;20083;-39
2023/11/24 12:13:09;;;;;;;10.90;2.15;;;7.80;83.90;;;;;;5135853;27;20067;-39
2023/11/24 12:15:37;;;;;;;10.75;2.67;;;7.80;83.70;;;;;;5136057;27;20023;-39
2023/11/24 12:18:06;;;;;;;11.73;2.42;;;7.80;83.90;;;;;;5136075;27;20064;-35
2023/11/24 12:20:32;;;;;;;10.35;2.47;;;7.80;83.90;;;;;;5136029;27;20086;-36
2023/11/24 12:22:59;;;;;;;11.05;2.10;;;7.90;84.10;;;;;;5136002;27;20106;-37
2023/11/24 12:25:27;;;;;;;12.85;2.60;;;7.90;84.10;;;;;;5135598;27;20011;-37
2023/11/24 12:27:56;;;;;;;13.50;2.67;;;8.00;83.40;;;;;;5135940;27;20031;-33
2023/11/24 12:30:22;;;;;;;9.93;2.28;;;8.10;83.20;;;;;;5135670;27;20128;-35
2023/11/24 12:32:48;;;;;;;11.32;2.40;;;8.10;83.30;;;;;;5135399;27;20027;-41
2023/11/24 12:35:14;;;;;;;17.30;2.92;;;8.20;82.00;;;;;;5135793;27;20480;-35
2023/11/24 12:37:41;;;;;;;10.85;2.63;;;8.20;81.70;;;;;;5135788;27;20378;-37
2023/11/24 12:40:13;;;;;;;7.97;1.92;;;8.30;81.60;;;;;;5135892;27;20011;-38
2023/11/24 12:42:40;;;;;;;6.60;1.77;;;8.40;81.10;;;;;;5134415;27;20027;-36
2023/11/24 12:45:08;;;;;;;9.93;2.35;;;8.50;81.40;;;;;;5135953;27;20023;-35
2023/11/24 12:47:34;;;;;;;10.75;2.30;;;8.50;80.90;;;;;;5135131;27;20027;-33
2023/11/24 12:50:06;;;;;;;8.43;2.03;;;8.50;80.50;;;;;;5135777;27;20471;-45
2023/11/24 12:52:34;;;;;;;12.77;2.22;;;8.50;81.10;;;;;;5135236;27;20080;-34